createdAt,value
2022-12-23T00:01:55.243Z,4.93
2022-12-23T00:04:23.196Z,4.83
2022-12-23T00:06:51.035Z,4.92
2022-12-23T00:09:18.325Z,4.94
2022-12-23T00:12:04.533Z,4.96
2022-12-23T00:14:50.882Z,4.92
2022-12-23T00:17:22.715Z,4.96
2022-12-23T00:19:51.073Z,4.97
2022-12-23T00:22:18.926Z,4.90
2022-12-23T00:24:46.574Z,4.90
2022-12-23T00:27:14.361Z,4.92
2022-12-23T00:29:41.893Z,4.95
2022-12-23T00:32:09.534Z,4.97
2022-12-23T00:34:37.050Z,4.97
2022-12-23T00:37:04.631Z,5.00
2022-12-23T00:39:54.735Z,4.96
2022-12-23T00:42:41.309Z,4.94
2022-12-23T00:45:21.420Z,4.99
2022-12-23T00:48:07.709Z,4.99
2022-12-23T00:50:39.919Z,5.00
2022-12-23T00:53:07.437Z,5.00
2022-12-23T00:55:34.830Z,5.00
2022-12-23T00:58:02.328Z,5.05
2022-12-23T01:00:48.177Z,5.06
2022-12-23T01:03:34.201Z,5.05
2022-12-23T01:06:02.868Z,5.05
2022-12-23T01:08:30.657Z,5.07
2022-12-23T01:11:03.448Z,5.03
2022-12-23T01:13:31.067Z,5.04
2022-12-23T01:16:14.947Z,4.97
2022-12-23T01:18:44.955Z,5.00
2022-12-23T01:21:12.436Z,5.01
2022-12-23T01:23:40.212Z,5.03
2022-12-23T01:26:08.788Z,5.05
2022-12-23T01:28:36.653Z,5.06
2022-12-23T01:31:05.750Z,5.05
2022-12-23T01:33:34.140Z,5.03
2022-12-23T01:36:07.032Z,5.09
2022-12-23T01:38:35.490Z,5.13
2022-12-23T01:41:02.976Z,5.12
2022-12-23T01:43:50.578Z,5.12
2022-12-23T01:46:19.253Z,5.12
2022-12-23T01:48:51.545Z,5.18
2022-12-23T01:51:26.529Z,5.18
2022-12-23T01:54:01.205Z,5.20
2022-12-23T01:56:38.762Z,5.25
2022-12-23T01:59:09.966Z,5.23
2022-12-23T02:01:55.918Z,5.17
2022-12-23T02:04:25.075Z,5.25
2022-12-23T02:07:10.768Z,5.25
2022-12-23T02:09:39.948Z,5.27
2022-12-23T02:12:25.848Z,5.29
2022-12-23T02:15:50.764Z,5.30
2022-12-23T02:18:21.358Z,5.30
2022-12-23T02:21:00.785Z,5.36
2022-12-23T02:24:12.631Z,5.31
2022-12-23T02:27:01.735Z,5.35
2022-12-23T02:29:53.608Z,5.38
2022-12-23T02:32:33.621Z,5.39
2022-12-23T02:35:07.388Z,5.38
2022-12-23T02:37:40.908Z,5.41
2022-12-23T02:40:20.830Z,5.44
2022-12-23T02:42:56.626Z,5.48
2022-12-23T02:45:28.291Z,5.47
2022-12-23T02:48:03.962Z,5.45
2022-12-23T02:50:33.996Z,5.32
2022-12-23T02:53:06.478Z,5.38
2022-12-23T02:55:35.531Z,5.43
2022-12-23T02:58:06.624Z,5.43
2022-12-23T03:00:34.425Z,5.46
2022-12-23T03:03:01.929Z,5.46
2022-12-23T03:05:34.570Z,5.42
2022-12-23T03:08:04.491Z,5.49
2022-12-23T03:10:37.811Z,5.43
2022-12-23T03:13:43.067Z,5.43
2022-12-23T03:16:47.639Z,5.45
2022-12-23T03:19:26.682Z,5.47
2022-12-23T03:21:56.175Z,5.40
2022-12-23T03:24:45.535Z,5.42
2022-12-23T03:27:36.457Z,5.43
2022-12-23T03:30:08.263Z,5.43
2022-12-23T03:32:48.271Z,5.43
2022-12-23T03:35:18.572Z,5.43
2022-12-23T03:37:49.853Z,5.45
2022-12-23T03:40:20.661Z,5.45
2022-12-23T03:42:53.031Z,5.40
2022-12-23T03:45:39.287Z,5.45
2022-12-23T03:48:14.654Z,5.49
2022-12-23T03:50:43.439Z,5.44
2022-12-23T03:53:14.931Z,5.49
2022-12-23T03:55:51.933Z,5.53
2022-12-23T03:58:22.126Z,5.53
2022-12-23T04:00:59.059Z,5.47
2022-12-23T04:03:37.400Z,5.45
2022-12-23T04:06:06.472Z,5.42
2022-12-23T04:08:36.285Z,5.44
2022-12-23T04:11:04.567Z,5.47
2022-12-23T04:13:32.262Z,5.41
2022-12-23T04:16:01.688Z,5.38
2022-12-23T04:18:29.282Z,5.36
2022-12-23T04:20:56.898Z,5.35
2022-12-23T04:23:24.147Z,5.37
2022-12-23T04:25:51.816Z,5.23
2022-12-23T04:28:19.181Z,5.25
2022-12-23T04:30:46.832Z,5.20
2022-12-23T04:33:14.161Z,5.18
2022-12-23T04:35:41.650Z,5.11
2022-12-23T04:38:08.845Z,5.09
2022-12-23T04:40:36.505Z,5.06
2022-12-23T04:43:03.839Z,5.01
2022-12-23T04:45:32.558Z,4.93
2022-12-23T04:47:59.826Z,4.93
2022-12-23T04:50:27.358Z,4.95
2022-12-23T04:52:54.743Z,4.88
2022-12-23T04:55:22.536Z,4.81
2022-12-23T04:57:49.958Z,4.77
2022-12-23T05:00:18.269Z,4.68
2022-12-23T05:02:45.742Z,4.68
2022-12-23T05:05:13.580Z,4.61
2022-12-23T05:07:40.816Z,4.56
2022-12-23T05:10:09.131Z,4.55
2022-12-23T05:12:36.444Z,4.49
2022-12-23T05:15:04.327Z,4.43
2022-12-23T05:17:31.525Z,4.38
2022-12-23T05:19:58.973Z,4.32
2022-12-23T05:22:26.172Z,4.24
2022-12-23T05:24:53.735Z,4.20
2022-12-23T05:27:20.970Z,4.18
2022-12-23T05:29:48.598Z,4.15
2022-12-23T05:32:44.754Z,4.13
2022-12-23T05:35:12.246Z,4.10
2022-12-23T05:37:39.494Z,4.09
2022-12-23T05:40:07.678Z,4.05
2022-12-23T05:42:35.246Z,4.01
2022-12-23T05:45:03.004Z,3.96
2022-12-23T05:47:30.302Z,3.95
2022-12-23T05:49:57.482Z,3.94
2022-12-23T05:52:25.860Z,3.95
2022-12-23T05:54:53.619Z,3.95
2022-12-23T05:57:20.979Z,3.99
2022-12-23T05:59:48.648Z,4.05
2022-12-23T06:02:16.088Z,4.08
2022-12-23T06:04:43.945Z,4.11
2022-12-23T06:07:11.477Z,4.11
2022-12-23T06:09:39.029Z,4.20
2022-12-23T06:12:06.404Z,4.25
2022-12-23T06:14:34.099Z,4.25
2022-12-23T06:17:01.563Z,4.28
2022-12-23T06:19:29.186Z,4.32
2022-12-23T06:21:56.687Z,4.37
2022-12-23T06:24:24.279Z,4.38
2022-12-23T06:26:56.811Z,4.38
2022-12-23T06:29:25.251Z,4.46
2022-12-23T06:31:52.488Z,4.39
2022-12-23T06:34:20.274Z,4.44
2022-12-23T06:36:47.438Z,4.42
2022-12-23T06:39:15.134Z,4.42
2022-12-23T06:41:42.366Z,4.48
2022-12-23T06:44:10.374Z,4.39
2022-12-23T06:46:37.785Z,4.43
2022-12-23T06:49:12.572Z,4.39
2022-12-23T06:51:41.365Z,4.37
2022-12-23T06:54:11.935Z,4.35
2022-12-23T06:56:39.850Z,4.34
2022-12-23T06:59:07.056Z,4.21
2022-12-23T07:01:34.816Z,4.30
2022-12-23T07:04:03.133Z,4.29
2022-12-23T07:06:30.755Z,4.29
2022-12-23T07:08:58.034Z,4.36
2022-12-23T07:11:25.597Z,4.34
2022-12-23T07:13:52.810Z,4.36
2022-12-23T07:16:20.321Z,4.43
2022-12-23T07:18:47.673Z,4.46
2022-12-23T07:21:22.921Z,4.46
2022-12-23T07:23:54.010Z,4.49
2022-12-23T07:26:21.656Z,4.52
2022-12-23T07:28:49.272Z,4.52
2022-12-23T07:31:17.163Z,4.56
2022-12-23T07:33:44.777Z,4.58
2022-12-23T07:36:13.056Z,4.59
2022-12-23T07:38:40.210Z,4.64
2022-12-23T07:41:07.842Z,4.66
2022-12-23T07:43:35.569Z,4.65
2022-12-23T07:46:08.134Z,4.61
2022-12-23T07:48:35.716Z,4.57
2022-12-23T07:51:04.103Z,4.59
2022-12-23T07:53:31.659Z,4.59
2022-12-23T07:55:59.397Z,4.56
2022-12-23T07:58:26.603Z,4.60
2022-12-23T08:01:08.223Z,4.59
2022-12-23T08:03:35.668Z,4.57
2022-12-23T08:06:09.180Z,4.63
2022-12-23T08:08:36.238Z,4.59
2022-12-23T08:11:05.439Z,4.55
2022-12-23T08:13:34.727Z,4.56
2022-12-23T08:16:03.748Z,4.58
2022-12-23T08:18:34.528Z,4.58
2022-12-23T08:21:16.820Z,4.62
2022-12-23T08:23:44.201Z,4.64
2022-12-23T08:26:16.841Z,4.74
2022-12-23T08:28:44.902Z,4.78
2022-12-23T08:31:15.556Z,4.79
2022-12-23T08:33:45.112Z,4.86
2022-12-23T08:36:22.839Z,4.85
2022-12-23T08:38:52.969Z,4.83
2022-12-23T08:41:23.453Z,4.89
2022-12-23T08:43:51.493Z,4.92
2022-12-23T08:46:19.750Z,4.95
2022-12-23T08:48:49.648Z,4.95
2022-12-23T08:51:19.292Z,4.94
2022-12-23T08:53:46.775Z,4.88
2022-12-23T08:56:18.074Z,4.92
2022-12-23T08:58:47.188Z,4.98
2022-12-23T09:01:17.598Z,4.96
2022-12-23T09:03:45.442Z,5.01
2022-12-23T09:06:16.028Z,5.02
2022-12-23T09:08:43.670Z,5.02
2022-12-23T09:11:20.104Z,5.01
2022-12-23T09:13:48.203Z,5.05
2022-12-23T09:16:16.231Z,5.04
2022-12-23T09:18:43.597Z,5.06
2022-12-23T09:21:17.009Z,5.11
2022-12-23T09:23:44.192Z,5.15
2022-12-23T09:26:18.689Z,5.10
2022-12-23T09:28:46.009Z,5.18
2022-12-23T09:31:14.323Z,5.13
2022-12-23T09:33:41.844Z,5.24
2022-12-23T09:36:09.575Z,5.23
2022-12-23T09:38:37.086Z,5.28
2022-12-23T09:41:32.226Z,5.28
2022-12-23T09:44:24.310Z,5.33
2022-12-23T09:46:55.294Z,5.35
2022-12-23T09:49:23.893Z,5.35
2022-12-23T09:51:54.266Z,5.37
2022-12-23T09:54:24.106Z,5.39
2022-12-23T09:56:54.293Z,5.41
2022-12-23T09:59:30.764Z,5.47
2022-12-23T10:02:06.413Z,5.43
2022-12-23T10:05:00.222Z,5.50
2022-12-23T10:07:37.905Z,5.52
2022-12-23T10:10:15.101Z,5.59
2022-12-23T10:12:45.760Z,5.58
2022-12-23T10:15:35.286Z,5.64
2022-12-23T10:18:10.816Z,5.64
2022-12-23T10:20:44.889Z,5.63
2022-12-23T10:23:19.495Z,5.65
2022-12-23T10:25:51.875Z,5.65
2022-12-23T10:28:19.914Z,5.68
2022-12-23T10:31:23.923Z,5.66
2022-12-23T10:34:11.451Z,5.62
2022-12-23T10:36:45.766Z,5.62
2022-12-23T10:39:31.868Z,5.65
2022-12-23T10:42:23.679Z,5.55
2022-12-23T10:45:01.508Z,5.63
2022-12-23T10:47:49.359Z,5.62
2022-12-23T10:50:36.083Z,5.68
2022-12-23T10:53:08.388Z,5.70
2022-12-23T10:55:38.586Z,5.76
2022-12-23T10:58:18.513Z,5.71
2022-12-23T11:00:50.301Z,5.75
2022-12-23T11:03:17.879Z,5.83
2022-12-23T11:05:46.477Z,5.73
2022-12-23T11:08:13.897Z,5.76
2022-12-23T11:10:41.765Z,5.71
2022-12-23T11:13:09.203Z,5.78
2022-12-23T11:15:39.339Z,5.78
2022-12-23T11:18:26.742Z,5.74
2022-12-23T11:21:07.155Z,5.76
2022-12-23T11:23:36.804Z,5.75
2022-12-23T11:26:08.613Z,5.75
2022-12-23T11:28:38.993Z,5.74
2022-12-23T11:31:11.953Z,5.70
2022-12-23T11:33:56.910Z,5.64
2022-12-23T11:36:27.853Z,5.68
2022-12-23T11:39:08.137Z,5.67
2022-12-23T11:41:42.614Z,5.63
2022-12-23T11:44:30.936Z,5.64
2022-12-23T11:46:58.713Z,5.54
2022-12-23T11:49:28.113Z,5.60
2022-12-23T11:52:07.870Z,5.56
2022-12-23T11:54:35.396Z,5.53
2022-12-23T11:57:06.120Z,5.49
2022-12-23T11:59:37.024Z,5.48
2022-12-23T12:02:36.825Z,5.44
2022-12-23T12:05:22.579Z,5.44
2022-12-23T12:07:51.191Z,5.49
2022-12-23T12:10:31.684Z,5.46
2022-12-23T12:13:05.710Z,5.44
2022-12-23T12:16:08.397Z,5.46
2022-12-23T12:18:36.587Z,5.43
2022-12-23T12:21:11.401Z,5.39
2022-12-23T12:23:47.029Z,5.39
2022-12-23T12:26:34.790Z,5.38
2022-12-23T12:29:27.428Z,5.39
2022-12-23T12:31:57.908Z,5.30
2022-12-23T12:34:40.919Z,5.33
2022-12-23T12:37:17.907Z,5.31
2022-12-23T12:40:14.031Z,5.27
2022-12-23T12:42:43.266Z,5.23
2022-12-23T12:45:18.337Z,5.29
2022-12-23T12:48:13.074Z,5.27
2022-12-23T12:50:54.991Z,5.30
2022-12-23T12:53:22.918Z,5.27
2022-12-23T12:56:01.194Z,5.23
2022-12-23T12:58:28.687Z,5.29
2022-12-23T13:01:21.037Z,5.28
2022-12-23T13:04:13.286Z,5.20
2022-12-23T13:07:22.565Z,5.26
2022-12-23T13:09:52.826Z,5.25
2022-12-23T13:12:46.416Z,5.18
2022-12-23T13:15:24.091Z,5.16
2022-12-23T13:18:10.998Z,5.25
2022-12-23T13:21:09.480Z,5.25
2022-12-23T13:23:48.536Z,5.07
2022-12-23T13:26:26.995Z,5.06
2022-12-23T13:29:14.139Z,5.12
2022-12-23T13:31:44.343Z,5.06
2022-12-23T13:34:24.146Z,5.04
2022-12-23T13:37:06.673Z,5.02
2022-12-23T13:39:46.969Z,5.13
2022-12-23T13:42:20.948Z,5.15
2022-12-23T13:44:48.576Z,5.15
2022-12-23T13:47:26.196Z,5.18
2022-12-23T13:50:20.667Z,5.25
2022-12-23T13:52:53.857Z,5.31
2022-12-23T13:55:33.532Z,5.35
2022-12-23T13:58:11.329Z,5.34
2022-12-23T14:00:38.845Z,5.38
2022-12-23T14:03:18.478Z,5.22
2022-12-23T14:05:50.951Z,5.33
2022-12-23T14:08:27.484Z,5.37
2022-12-23T14:10:57.717Z,5.43
2022-12-23T14:13:49.773Z,5.46
2022-12-23T14:16:26.580Z,5.59
2022-12-23T14:19:06.657Z,5.58
2022-12-23T14:22:05.798Z,5.54
2022-12-23T14:25:14.641Z,5.68
2022-12-23T14:28:19.803Z,5.68
2022-12-23T14:30:47.219Z,5.67
2022-12-23T14:33:23.664Z,5.64
2022-12-23T14:35:54.792Z,5.67
2022-12-23T14:38:32.873Z,5.72
2022-12-23T14:41:20.311Z,5.75
2022-12-23T14:43:56.249Z,5.80
2022-12-23T14:46:38.857Z,5.81
2022-12-23T14:49:44.338Z,5.83
2022-12-23T14:52:42.461Z,5.85
2022-12-23T14:55:32.568Z,5.84
2022-12-23T14:58:08.918Z,5.88
2022-12-23T15:00:46.827Z,5.89
2022-12-23T15:03:14.292Z,5.89
2022-12-23T15:05:42.859Z,5.91
2022-12-23T15:08:30.780Z,5.93
2022-12-23T15:10:59.638Z,5.93
2022-12-23T15:13:28.406Z,5.97
2022-12-23T15:16:01.322Z,5.93
2022-12-23T15:18:29.240Z,5.93
2022-12-23T15:21:05.128Z,5.96
2022-12-23T15:23:33.560Z,5.96
2022-12-23T15:26:01.745Z,5.98
2022-12-23T15:28:39.960Z,5.96
2022-12-23T15:31:20.987Z,5.92
2022-12-23T15:34:05.597Z,5.95
2022-12-23T15:36:37.270Z,5.98
2022-12-23T15:39:25.668Z,5.92
2022-12-23T15:41:53.296Z,5.97
2022-12-23T15:44:26.787Z,6.00
2022-12-23T15:46:54.618Z,5.93
2022-12-23T15:49:22.067Z,6.03
2022-12-23T15:52:08.027Z,6.05
2022-12-23T15:54:44.640Z,6.07
2022-12-23T15:57:17.557Z,6.05
2022-12-23T15:59:44.997Z,6.10
2022-12-23T16:02:59.226Z,5.73
2022-12-23T16:05:09.825Z,6.06
2022-12-23T16:07:42.283Z,6.04
2022-12-23T16:10:30.710Z,6.06
2022-12-23T16:12:59.192Z,6.05
2022-12-23T16:15:33.589Z,6.05
2022-12-23T16:18:24.386Z,6.06
2022-12-23T16:20:54.443Z,6.00
2022-12-23T16:23:22.677Z,6.06
2022-12-23T16:25:52.135Z,6.07
2022-12-23T16:28:24.347Z,6.03
2022-12-23T16:30:56.791Z,6.07
2022-12-23T16:33:36.487Z,6.06
2022-12-23T16:36:25.630Z,6.09
2022-12-23T16:38:59.140Z,6.06
2022-12-23T16:41:26.629Z,6.09
2022-12-23T16:43:54.323Z,6.07
2022-12-23T16:46:23.365Z,6.11
2022-12-23T16:48:59.465Z,6.14
2022-12-23T16:51:28.741Z,6.09
2022-12-23T16:53:57.686Z,6.15
2022-12-23T16:56:28.589Z,6.11
2022-12-23T16:58:55.969Z,6.13
2022-12-23T17:01:30.112Z,6.18
2022-12-23T17:03:57.671Z,6.15
2022-12-23T17:06:25.649Z,6.16
2022-12-23T17:08:53.475Z,6.19
2022-12-23T17:11:30.086Z,6.24
2022-12-23T17:14:03.869Z,6.24
2022-12-23T17:16:32.972Z,6.16
2022-12-23T17:19:00.425Z,6.11
2022-12-23T17:21:34.014Z,6.20
2022-12-23T17:24:22.069Z,6.26
2022-12-23T17:26:50.385Z,6.17
2022-12-23T17:29:17.809Z,6.16
2022-12-23T17:31:47.232Z,6.09
2022-12-23T17:34:25.197Z,6.06
2022-12-23T17:36:53.692Z,6.03
2022-12-23T17:39:22.541Z,6.02
2022-12-23T17:41:51.022Z,5.89
2022-12-23T17:44:19.335Z,5.83
2022-12-23T17:46:47.652Z,5.81
2022-12-23T17:49:17.566Z,5.82
2022-12-23T17:51:45.942Z,5.76
2022-12-23T17:54:23.398Z,5.78
2022-12-23T17:56:52.906Z,5.73
2022-12-23T17:59:21.995Z,5.71
2022-12-23T18:01:50.723Z,5.71
2022-12-23T18:04:19.236Z,5.70
2022-12-23T18:06:47.144Z,5.67
2022-12-23T18:09:15.524Z,5.62
2022-12-23T18:11:45.591Z,5.62
2022-12-23T18:14:17.689Z,5.63
2022-12-23T18:16:48.014Z,5.54
2022-12-23T18:19:19.547Z,5.54
2022-12-23T18:21:48.168Z,5.50
2022-12-23T18:24:16.703Z,5.46
2022-12-23T18:26:45.137Z,5.44
2022-12-23T18:29:13.556Z,5.41
2022-12-23T18:31:51.215Z,5.43
2022-12-23T18:34:20.627Z,5.50
2022-12-23T18:36:48.717Z,5.49
2022-12-23T18:39:18.087Z,5.51
2022-12-23T18:41:45.853Z,5.55
2022-12-23T18:44:20.801Z,5.44
2022-12-23T18:46:49.683Z,5.52
2022-12-23T18:49:17.937Z,5.49
2022-12-23T18:51:46.465Z,5.50
2022-12-23T18:54:16.107Z,5.52
2022-12-23T18:56:44.086Z,5.45
2022-12-23T18:59:29.687Z,5.48
2022-12-23T19:01:58.307Z,5.47
2022-12-23T19:04:27.693Z,5.43
2022-12-23T19:06:57.460Z,5.48
2022-12-23T19:09:26.250Z,5.47
2022-12-23T19:11:54.456Z,5.43
2022-12-23T19:14:22.732Z,5.47
2022-12-23T19:16:52.314Z,5.42
2022-12-23T19:19:21.672Z,5.39
2022-12-23T19:21:49.326Z,5.35
2022-12-23T19:24:17.829Z,5.33
2022-12-23T19:26:45.754Z,5.33
2022-12-23T19:29:13.998Z,5.35
2022-12-23T19:31:42.000Z,5.31
2022-12-23T19:34:15.117Z,5.32
2022-12-23T19:36:44.327Z,5.35
2022-12-23T19:39:16.948Z,5.31
2022-12-23T19:41:45.956Z,5.23
2022-12-23T19:44:14.798Z,5.26
2022-12-23T19:46:42.687Z,5.22
2022-12-23T19:49:19.276Z,5.23
2022-12-23T19:51:48.070Z,5.20
2022-12-23T19:54:17.766Z,5.20
2022-12-23T19:56:46.355Z,5.22
2022-12-23T19:59:15.064Z,5.22
2022-12-23T20:01:43.075Z,5.23
2022-12-23T20:04:12.762Z,5.26
2022-12-23T20:06:41.319Z,5.24
2022-12-23T20:09:13.144Z,5.26
2022-12-23T20:11:44.848Z,5.27
2022-12-23T20:14:16.193Z,5.27
2022-12-23T20:16:44.061Z,5.27
2022-12-23T20:19:12.693Z,5.28
2022-12-23T20:21:40.750Z,5.26
2022-12-23T20:24:10.130Z,5.26
2022-12-23T20:26:38.431Z,5.23
2022-12-23T20:29:06.758Z,5.20
2022-12-23T20:31:35.659Z,5.13
2022-12-23T20:34:07.603Z,4.97
2022-12-23T20:36:36.242Z,4.96
2022-12-23T20:39:04.295Z,4.99
2022-12-23T20:41:31.909Z,4.99
2022-12-23T20:46:46.584Z,4.95
2022-12-23T20:49:13.999Z,4.95
2022-12-23T20:51:41.140Z,4.95
2022-12-23T20:54:09.350Z,4.93
2022-12-23T20:56:36.637Z,4.93
2022-12-23T20:59:04.171Z,4.95
2022-12-23T21:01:37.905Z,5.00
2022-12-23T21:04:07.957Z,4.98
2022-12-23T21:06:35.596Z,5.02
2022-12-23T21:09:05.095Z,5.00
2022-12-23T21:11:34.259Z,4.98
2022-12-23T21:14:06.204Z,4.97
2022-12-23T21:16:35.992Z,5.03
2022-12-23T21:19:05.162Z,4.99
2022-12-23T21:21:32.404Z,4.97
2022-12-23T21:24:01.588Z,5.02
2022-12-23T21:26:29.533Z,5.03
2022-12-23T21:28:59.532Z,5.02
2022-12-23T21:31:28.431Z,5.04
2022-12-23T21:33:56.455Z,5.02
2022-12-23T21:36:29.275Z,5.01
2022-12-23T21:38:57.358Z,5.01
2022-12-23T21:41:30.275Z,5.01
2022-12-23T21:43:58.707Z,4.93
2022-12-23T21:46:27.081Z,4.98
2022-12-23T21:48:58.827Z,5.01
2022-12-23T21:51:35.037Z,4.99
2022-12-23T21:54:06.477Z,4.97
2022-12-23T21:56:34.046Z,4.99
2022-12-23T21:59:05.276Z,4.99
2022-12-23T22:01:33.303Z,5.02
2022-12-23T22:04:00.886Z,5.01
2022-12-23T22:06:39.460Z,5.01
2022-12-23T22:09:07.859Z,4.98
2022-12-23T22:11:36.466Z,4.98
2022-12-23T22:14:06.539Z,4.98
2022-12-23T22:16:34.883Z,4.92
2022-12-23T22:19:04.201Z,4.93
2022-12-23T22:21:33.170Z,4.92
2022-12-23T22:24:01.180Z,4.92
2022-12-23T22:26:31.009Z,4.93
2022-12-23T22:29:00.703Z,4.94
2022-12-23T22:31:30.879Z,4.93
2022-12-23T22:33:58.973Z,4.89
2022-12-23T22:36:26.398Z,4.92
2022-12-23T22:38:56.340Z,4.92
2022-12-23T22:41:24.499Z,4.86
2022-12-23T22:43:52.061Z,4.84
2022-12-23T22:46:19.389Z,4.83
2022-12-23T22:48:46.933Z,4.82
2022-12-23T22:51:16.304Z,4.84
2022-12-23T22:53:43.840Z,4.85
2022-12-23T22:56:13.082Z,4.79
2022-12-23T22:58:40.838Z,4.78
2022-12-23T23:01:21.175Z,4.72
2022-12-23T23:03:51.202Z,4.73
2022-12-23T23:06:18.887Z,4.69
2022-12-23T23:08:46.371Z,4.68
2022-12-23T23:11:13.380Z,4.68
2022-12-23T23:13:40.859Z,4.76
2022-12-23T23:16:08.128Z,4.73
2022-12-23T23:18:35.619Z,4.68
2022-12-23T23:21:02.789Z,4.64
2022-12-23T23:23:30.116Z,4.68
2022-12-23T23:25:57.225Z,4.64
2022-12-23T23:28:24.747Z,4.60
2022-12-23T23:31:03.779Z,4.59
2022-12-23T23:33:39.306Z,4.54
2022-12-23T23:36:07.083Z,4.57
2022-12-23T23:38:35.340Z,4.62
2022-12-23T23:41:02.874Z,4.62
2022-12-23T23:43:30.198Z,4.60
2022-12-23T23:45:57.372Z,4.57
2022-12-23T23:48:24.619Z,4.55
2022-12-23T23:50:51.853Z,4.57
2022-12-23T23:53:19.349Z,4.57
2022-12-23T23:55:46.419Z,4.43
2022-12-23T23:58:13.807Z,4.50
